createdAt,value
2022-10-11T00:02:05.153Z,6.33
2022-10-11T00:04:31.898Z,6.38
2022-10-11T00:06:58.640Z,6.45
2022-10-11T00:09:25.385Z,6.53
2022-10-11T00:11:55.801Z,6.62
2022-10-11T00:14:24.081Z,6.70
2022-10-11T00:16:50.866Z,6.78
2022-10-11T00:19:18.051Z,6.84
2022-10-11T00:21:46.037Z,6.90
2022-10-11T00:24:13.729Z,6.96
2022-10-11T00:26:45.703Z,7.03
2022-10-11T00:29:13.627Z,7.09
2022-10-11T00:31:40.621Z,7.16
2022-10-11T00:34:08.458Z,7.20
2022-10-11T00:36:35.309Z,7.23
2022-10-11T00:39:02.349Z,7.24
2022-10-11T00:41:29.106Z,7.25
2022-10-11T00:44:20.004Z,7.26
2022-10-11T00:46:56.030Z,7.30
2022-10-11T00:49:34.322Z,7.33
2022-10-11T00:52:07.622Z,7.36
2022-10-11T00:54:38.044Z,7.36
2022-10-11T00:57:10.427Z,7.35
2022-10-11T00:59:41.665Z,7.35
2022-10-11T01:02:11.637Z,7.34
2022-10-11T01:04:39.522Z,7.37
2022-10-11T01:07:06.257Z,7.38
2022-10-11T01:09:33.921Z,7.40
2022-10-11T01:12:03.852Z,7.41
2022-10-11T01:14:43.440Z,7.41
2022-10-11T01:17:29.999Z,7.39
2022-10-11T01:20:22.509Z,7.39
2022-10-11T01:23:11.717Z,7.39
2022-10-11T01:25:54.330Z,7.41
2022-10-11T01:28:38.225Z,7.47
2022-10-11T01:31:27.171Z,7.59
2022-10-11T01:34:09.292Z,7.81
2022-10-11T01:36:42.732Z,7.96
2022-10-11T01:39:13.588Z,8.13
2022-10-11T01:41:46.240Z,8.34
2022-10-11T01:44:13.821Z,8.55
2022-10-11T01:46:41.025Z,8.69
2022-10-11T01:49:07.911Z,8.80
2022-10-11T01:51:38.227Z,8.95
2022-10-11T01:54:12.056Z,9.03
2022-10-11T01:56:56.790Z,9.09
2022-10-11T01:59:46.758Z,9.15
2022-10-11T02:02:16.298Z,9.17
2022-10-11T02:04:52.958Z,9.23
2022-10-11T02:07:37.529Z,9.30
2022-10-11T02:10:04.452Z,9.40
2022-10-11T02:12:38.076Z,9.52
2022-10-11T02:15:09.438Z,9.63
2022-10-11T02:17:43.836Z,9.72
2022-10-11T02:20:14.573Z,9.80
2022-10-11T02:22:45.588Z,9.84
2022-10-11T02:25:19.923Z,9.86
2022-10-11T02:27:48.805Z,9.87
2022-10-11T02:30:16.720Z,9.89
2022-10-11T02:32:46.598Z,9.93
2022-10-11T02:35:14.120Z,9.97
2022-10-11T02:37:51.737Z,10.05
2022-10-11T02:40:19.042Z,10.13
2022-10-11T02:42:53.834Z,10.21
2022-10-11T02:45:27.742Z,10.28
2022-10-11T02:47:55.097Z,10.34
2022-10-11T02:50:22.828Z,10.38
2022-10-11T02:52:49.685Z,10.43
2022-10-11T02:55:16.638Z,10.48
2022-10-11T02:57:44.193Z,10.55
2022-10-11T03:00:11.769Z,10.62
2022-10-11T03:02:38.477Z,10.66
2022-10-11T03:05:05.636Z,10.69
2022-10-11T03:07:32.393Z,10.71
2022-10-11T03:09:59.119Z,10.72
2022-10-11T03:12:25.943Z,10.71
2022-10-11T03:14:53.214Z,10.73
2022-10-11T03:17:35.490Z,10.77
2022-10-11T03:20:02.737Z,10.80
2022-10-11T03:22:29.549Z,10.82
2022-10-11T03:25:00.962Z,10.84
2022-10-11T03:27:30.364Z,10.86
2022-10-11T03:29:57.985Z,10.89
2022-10-11T03:32:25.230Z,10.90
2022-10-11T03:34:51.954Z,10.90
2022-10-11T03:37:19.045Z,10.92
2022-10-11T03:39:46.048Z,10.94
2022-10-11T03:42:13.758Z,10.95
2022-10-11T03:44:42.168Z,10.96
2022-10-11T03:47:09.601Z,10.97
2022-10-11T03:49:41.199Z,10.97
2022-10-11T03:52:11.320Z,10.96
2022-10-11T03:54:38.091Z,10.93
2022-10-11T03:57:04.873Z,10.91
2022-10-11T03:59:31.691Z,10.88
2022-10-11T04:01:58.524Z,10.87
2022-10-11T04:04:25.305Z,10.90
2022-10-11T04:07:17.408Z,10.91
2022-10-11T05:45:57.727Z,10.38
2022-10-11T05:51:20.392Z,10.51
2022-10-11T05:53:47.505Z,10.49
2022-10-11T05:56:24.900Z,10.44
2022-10-11T05:58:58.677Z,10.32
2022-10-11T06:02:39.046Z,10.19
2022-10-11T06:05:21.043Z,10.25
2022-10-11T06:12:29.179Z,10.40
2022-10-11T06:15:13.304Z,10.39
2022-10-11T06:34:38.848Z,10.62
2022-10-11T06:40:33.536Z,10.47
2022-10-11T06:47:09.695Z,10.65
2022-10-11T06:50:40.659Z,10.75
2022-10-11T06:54:14.374Z,10.91
2022-10-11T06:56:32.488Z,11.07
2022-10-11T06:59:21.940Z,11.12
2022-10-11T07:02:42.541Z,11.13
2022-10-11T07:05:25.297Z,11.27
2022-10-11T07:07:57.097Z,11.31
2022-10-11T07:18:58.755Z,11.53
2022-10-11T07:22:44.967Z,11.62
2022-10-11T07:50:53.095Z,14.33
2022-10-11T07:53:23.468Z,14.67
2022-10-11T07:55:50.707Z,14.84
2022-10-11T07:58:17.792Z,14.94
2022-10-11T08:02:31.973Z,15.18
2022-10-11T08:03:54.654Z,15.62
2022-10-11T08:06:30.884Z,16.08
2022-10-11T08:09:10.660Z,16.39
2022-10-11T08:11:38.474Z,16.51
2022-10-11T08:14:28.432Z,16.62
2022-10-11T08:16:56.145Z,16.91
2022-10-11T08:19:23.200Z,17.18
2022-10-11T08:21:50.077Z,17.27
2022-10-11T08:24:21.530Z,17.29
2022-10-11T08:26:49.255Z,17.27
2022-10-11T08:29:16.792Z,17.26
2022-10-11T08:31:44.937Z,17.37
2022-10-11T08:34:13.402Z,17.46
2022-10-11T08:36:43.564Z,17.50
2022-10-11T08:41:23.722Z,17.57
2022-10-11T08:42:39.538Z,17.84
2022-10-11T08:45:19.389Z,18.12
2022-10-11T08:47:47.609Z,18.56
2022-10-11T08:50:23.893Z,18.91
2022-10-11T08:53:07.825Z,18.94
2022-10-11T08:56:03.851Z,19.05
2022-10-11T08:58:59.386Z,19.07
2022-10-11T09:01:54.712Z,18.90
2022-10-11T09:04:22.043Z,18.82
2022-10-11T09:07:08.225Z,18.74
2022-10-11T09:10:03.231Z,18.59
2022-10-11T09:12:51.272Z,18.44
2022-10-11T09:15:41.065Z,18.31
2022-10-11T09:18:42.050Z,18.26
2022-10-11T09:25:25.271Z,18.08
2022-10-11T09:29:18.275Z,17.88
2022-10-11T09:31:23.153Z,17.74
2022-10-11T09:34:21.831Z,17.65
2022-10-11T09:36:59.621Z,17.63
2022-10-11T09:39:56.392Z,17.56
2022-10-11T09:42:44.870Z,17.42
2022-10-11T09:45:35.564Z,17.32
2022-10-11T09:48:44.545Z,17.36
2022-10-11T09:51:28.540Z,17.61
2022-10-11T09:54:44.497Z,17.72
2022-10-11T09:58:04.149Z,17.49
2022-10-11T10:00:33.944Z,17.24
2022-10-11T10:03:07.215Z,16.97
2022-10-11T10:05:40.178Z,16.76
2022-10-11T10:08:27.061Z,16.43
2022-10-11T10:11:01.776Z,16.32
2022-10-11T10:13:55.135Z,16.26
2022-10-11T10:16:30.664Z,16.12
2022-10-11T10:19:24.009Z,16.04
2022-10-11T10:21:56.783Z,15.92
2022-10-11T10:24:50.590Z,15.88
2022-10-11T10:27:31.060Z,15.85
2022-10-11T10:33:44.372Z,15.76
2022-10-11T10:36:21.009Z,15.74
2022-10-11T10:39:07.723Z,15.77
2022-10-11T10:41:38.312Z,15.78
2022-10-11T10:44:05.994Z,15.81
2022-10-11T10:50:25.364Z,15.61
2022-10-11T10:53:18.332Z,15.61
2022-10-11T10:56:36.217Z,15.58
2022-10-11T11:04:48.179Z,15.52
2022-10-11T11:06:57.339Z,15.62
2022-10-11T11:10:00.761Z,15.69
2022-10-11T11:12:41.501Z,15.83
2022-10-11T11:15:13.330Z,15.80
2022-10-11T11:17:57.814Z,15.77
2022-10-11T11:20:32.062Z,15.79
2022-10-11T11:23:27.441Z,15.87
2022-10-11T11:26:06.918Z,15.88
2022-10-11T11:28:57.031Z,15.80
2022-10-11T11:31:49.112Z,15.74
2022-10-11T11:34:42.506Z,15.65
2022-10-11T11:37:28.975Z,15.54
2022-10-11T11:40:16.633Z,15.57
2022-10-11T11:42:57.293Z,15.64
2022-10-11T11:45:28.563Z,15.61
2022-10-11T11:48:03.692Z,15.62
2022-10-11T11:50:41.076Z,15.67
2022-10-11T11:53:16.338Z,15.62
2022-10-11T11:56:04.560Z,15.63
2022-10-11T11:58:48.080Z,15.71
2022-10-11T12:01:31.140Z,15.71
2022-10-11T12:04:05.508Z,15.55
2022-10-11T12:06:57.953Z,15.49
2022-10-11T12:09:25.176Z,15.45
2022-10-11T12:11:57.690Z,15.45
2022-10-11T12:14:51.282Z,15.63
2022-10-11T12:17:25.505Z,16.16
2022-10-11T12:20:41.913Z,16.99
2022-10-11T12:23:36.195Z,17.97
2022-10-11T12:26:34.654Z,18.80
2022-10-11T12:29:20.803Z,19.50
2022-10-11T12:32:04.420Z,20.08
2022-10-11T12:34:33.703Z,20.60
2022-10-11T12:37:38.824Z,21.18
2022-10-11T12:40:59.766Z,21.65
2022-10-11T12:43:47.859Z,22.00
2022-10-11T12:47:10.131Z,22.31
2022-10-11T12:50:42.314Z,22.72
2022-10-11T12:53:27.001Z,22.18
2022-10-11T12:56:25.350Z,21.33
2022-10-11T12:59:03.345Z,20.50
2022-10-11T13:05:31.531Z,19.43
2022-10-11T13:08:27.860Z,19.01
2022-10-11T13:11:05.209Z,18.66
2022-10-11T13:17:00.560Z,18.23
2022-10-11T13:19:30.091Z,18.17
2022-10-11T13:22:36.497Z,18.76
2022-10-11T13:25:54.345Z,19.73
2022-10-11T13:28:24.417Z,20.96
2022-10-11T13:30:57.759Z,21.76
2022-10-11T13:33:34.050Z,22.55
2022-10-11T13:36:04.262Z,23.30
2022-10-11T13:38:34.074Z,24.00
2022-10-11T13:41:06.402Z,24.33
2022-10-11T13:43:35.106Z,24.51
2022-10-11T13:46:06.986Z,24.31
2022-10-11T13:48:41.053Z,24.26
2022-10-11T13:51:09.668Z,24.21
2022-10-11T13:53:36.440Z,23.96
2022-10-11T13:56:07.839Z,23.82
2022-10-11T13:58:40.537Z,23.55
2022-10-11T14:01:20.980Z,22.76
2022-10-11T14:03:54.885Z,21.99
2022-10-11T14:06:21.795Z,21.21
2022-10-11T14:08:54.639Z,20.73
2022-10-11T14:11:39.150Z,20.76
2022-10-11T14:14:30.257Z,21.15
2022-10-11T14:17:04.347Z,21.43
2022-10-11T14:19:31.296Z,21.72
2022-10-11T14:21:58.217Z,21.99
2022-10-11T14:24:24.993Z,22.37
2022-10-11T14:26:54.368Z,22.82
2022-10-11T14:29:24.056Z,23.19
2022-10-11T14:31:52.102Z,23.66
2022-10-11T14:34:21.722Z,24.00
2022-10-11T14:36:49.207Z,24.33
2022-10-11T14:39:19.304Z,24.65
2022-10-11T14:41:47.340Z,24.88
2022-10-11T14:44:14.944Z,25.11
2022-10-11T14:46:42.717Z,25.29
2022-10-11T14:49:15.007Z,25.35
2022-10-11T14:51:41.973Z,25.11
2022-10-11T14:54:09.443Z,24.62
2022-10-11T14:56:36.196Z,24.18
2022-10-11T14:59:02.997Z,23.76
2022-10-11T15:01:29.905Z,23.23
2022-10-11T15:03:56.972Z,22.66
2022-10-11T15:06:29.022Z,22.04
2022-10-11T15:08:56.117Z,21.48
2022-10-11T15:11:24.174Z,20.95
2022-10-11T15:13:50.904Z,20.38
2022-10-11T15:16:20.814Z,19.89
2022-10-11T15:18:51.014Z,19.40
2022-10-11T15:21:19.549Z,18.95
2022-10-11T15:23:47.338Z,18.52
2022-10-11T15:26:18.383Z,18.11
2022-10-11T15:28:46.085Z,17.71
2022-10-11T15:31:13.283Z,17.32
2022-10-11T15:33:40.871Z,16.95
2022-10-11T15:36:12.320Z,16.60
2022-10-11T15:38:39.303Z,16.25
2022-10-11T15:41:06.363Z,15.93
2022-10-11T15:43:33.599Z,15.61
2022-10-11T15:46:02.435Z,15.32
2022-10-11T15:48:29.462Z,15.02
2022-10-11T15:50:56.509Z,14.74
2022-10-11T15:53:28.495Z,14.45
2022-10-11T15:55:57.806Z,14.18
2022-10-11T15:58:26.599Z,13.91
2022-10-11T16:00:55.393Z,13.66
2022-10-11T16:03:24.768Z,13.41
2022-10-11T16:05:52.640Z,13.16
2022-10-11T16:08:19.937Z,12.92
2022-10-11T16:10:46.716Z,12.68
2022-10-11T16:13:13.527Z,12.43
2022-10-11T16:15:42.269Z,12.19
2022-10-11T16:18:12.424Z,11.94
2022-10-11T16:20:41.036Z,11.70
2022-10-11T16:23:08.090Z,11.50
2022-10-11T16:25:35.878Z,11.30
2022-10-11T16:28:03.582Z,11.11
2022-10-11T16:30:30.446Z,10.93
2022-10-11T16:32:57.264Z,10.73
2022-10-11T16:35:25.483Z,10.51
2022-10-11T16:37:54.617Z,10.28
2022-10-11T16:40:22.164Z,10.07
2022-10-11T16:42:48.986Z,9.87
2022-10-11T16:45:16.480Z,9.67
2022-10-11T16:47:44.648Z,9.45
2022-10-11T16:50:12.311Z,9.25
2022-10-11T16:52:39.054Z,9.07
2022-10-11T16:55:06.404Z,8.92
2022-10-11T16:57:33.167Z,8.79
2022-10-11T16:59:59.873Z,8.64
2022-10-11T17:02:32.128Z,8.51
2022-10-11T17:04:59.507Z,8.38
2022-10-11T17:07:26.687Z,8.25
2022-10-11T17:09:53.429Z,8.11
2022-10-11T17:12:23.487Z,8.00
2022-10-11T17:14:51.110Z,7.85
2022-10-11T17:17:19.080Z,7.71
2022-10-11T17:19:47.513Z,7.58
2022-10-11T17:22:18.918Z,7.45
2022-10-11T17:24:46.537Z,7.33
2022-10-11T17:27:13.720Z,7.23
2022-10-11T17:29:40.662Z,7.13
2022-10-11T17:32:07.594Z,7.04
2022-10-11T17:34:34.556Z,6.91
2022-10-11T17:37:01.561Z,6.78
2022-10-11T17:39:28.313Z,6.65
2022-10-11T17:41:55.109Z,6.56
2022-10-11T17:44:22.115Z,6.47
2022-10-11T17:46:49.190Z,6.41
2022-10-11T17:49:16.113Z,6.36
2022-10-11T17:51:43.529Z,6.30
2022-10-11T17:54:12.716Z,6.22
2022-10-11T17:56:41.383Z,6.10
2022-10-11T17:59:11.870Z,5.98
2022-10-11T18:01:38.659Z,5.86
2022-10-11T18:04:06.304Z,5.77
2022-10-11T18:06:38.740Z,5.70
2022-10-11T18:09:06.136Z,5.63
2022-10-11T18:11:33.111Z,5.59
2022-10-11T18:14:01.124Z,5.56
2022-10-11T18:16:30.137Z,5.53
2022-10-11T18:18:58.045Z,5.49
2022-10-11T18:21:29.981Z,5.43
2022-10-11T18:24:03.360Z,5.36
2022-10-11T18:26:30.834Z,5.26
2022-10-11T18:28:58.817Z,5.16
2022-10-11T18:31:29.273Z,5.08
2022-10-11T18:33:56.361Z,5.01
2022-10-11T18:36:26.862Z,4.99
2022-10-11T18:38:57.160Z,4.95
2022-10-11T18:41:30.721Z,4.89
2022-10-11T18:44:00.491Z,4.82
2022-10-11T18:46:27.940Z,4.76
2022-10-11T18:48:56.773Z,4.69
2022-10-11T18:51:42.416Z,4.62
2022-10-11T18:54:13.942Z,4.53
2022-10-11T18:56:44.558Z,4.46
2022-10-11T18:59:11.463Z,4.42
2022-10-11T19:01:41.473Z,4.39
2022-10-11T19:04:11.126Z,4.32
2022-10-11T19:06:41.211Z,4.32
2022-10-11T19:09:11.809Z,4.26
2022-10-11T19:11:55.343Z,4.20
2022-10-11T19:14:26.151Z,4.10
2022-10-11T19:16:54.166Z,4.04
2022-10-11T19:19:24.219Z,3.97
2022-10-11T19:21:52.178Z,3.91
2022-10-11T19:24:21.826Z,3.86
2022-10-11T19:26:50.475Z,3.82
2022-10-11T19:29:19.970Z,3.77
2022-10-11T19:31:49.626Z,3.72
2022-10-11T19:34:16.965Z,3.66
2022-10-11T19:36:44.086Z,3.58
2022-10-11T19:39:15.027Z,3.51
2022-10-11T19:41:42.162Z,3.45
2022-10-11T19:44:09.903Z,3.42
2022-10-11T19:46:53.183Z,3.40
2022-10-11T19:49:24.067Z,3.41
2022-10-11T19:51:52.080Z,3.39
2022-10-11T19:54:18.953Z,3.35
2022-10-11T19:56:45.786Z,3.33
2022-10-11T19:59:13.525Z,3.28
2022-10-11T20:01:41.424Z,3.24
2022-10-11T20:04:22.677Z,3.20
2022-10-11T20:06:58.117Z,3.16
2022-10-11T20:09:29.660Z,3.12
2022-10-11T20:11:57.828Z,3.12
2022-10-11T20:14:25.078Z,3.11
2022-10-11T20:16:52.224Z,3.09
2022-10-11T20:19:19.650Z,3.06
2022-10-11T20:21:47.384Z,2.99
2022-10-11T20:24:14.338Z,2.91
2022-10-11T20:26:41.462Z,2.84
2022-10-11T20:29:08.512Z,2.84
2022-10-11T20:31:38.922Z,2.82
2022-10-11T20:34:07.374Z,2.81
2022-10-11T20:36:36.263Z,2.81
2022-10-11T20:39:05.228Z,2.81
2022-10-11T20:41:37.078Z,2.78
2022-10-11T20:44:04.766Z,2.76
2022-10-11T20:46:34.563Z,2.74
2022-10-11T20:49:04.152Z,2.70
2022-10-11T20:51:33.368Z,2.74
2022-10-11T20:54:02.118Z,2.73
2022-10-11T20:56:30.055Z,2.69
2022-10-11T20:58:57.929Z,2.58
2022-10-11T21:01:27.816Z,2.62
2022-10-11T21:03:54.960Z,2.57
2022-10-11T21:06:21.747Z,2.50
2022-10-11T21:08:48.498Z,2.46
2022-10-11T21:11:15.230Z,2.44
2022-10-11T21:13:42.095Z,2.41
2022-10-11T21:16:12.428Z,2.40
2022-10-11T21:18:40.158Z,2.36
2022-10-11T21:21:09.097Z,2.32
2022-10-11T21:23:36.030Z,2.28
2022-10-11T21:26:04.353Z,2.25
2022-10-11T21:28:31.329Z,2.21
2022-10-11T21:31:15.292Z,2.18
2022-10-11T21:33:43.471Z,2.16
2022-10-11T21:36:13.609Z,2.15
2022-10-11T21:38:40.997Z,2.14
2022-10-11T21:41:11.713Z,2.13
2022-10-11T21:43:38.533Z,2.10
2022-10-11T21:46:15.860Z,2.05
2022-10-11T21:48:42.809Z,1.98
2022-10-11T21:51:30.066Z,1.91
2022-10-11T21:53:59.545Z,1.88
2022-10-11T21:56:27.536Z,1.86
2022-10-11T21:58:54.275Z,1.85
2022-10-11T22:01:21.460Z,1.87
2022-10-11T22:03:48.755Z,1.87
2022-10-11T22:06:16.454Z,1.89
2022-10-11T22:08:43.302Z,1.87
2022-10-11T22:11:10.848Z,1.84
2022-10-11T22:13:38.521Z,1.79
2022-10-11T22:16:06.863Z,1.74
2022-10-11T22:18:34.117Z,1.68
2022-10-11T22:21:04.787Z,1.64
2022-10-11T22:23:31.529Z,1.62
2022-10-11T22:26:08.175Z,1.59
2022-10-11T22:28:35.461Z,1.58
2022-10-11T22:31:02.294Z,1.57
2022-10-11T22:33:29.079Z,1.57
2022-10-11T22:35:59.452Z,1.59
2022-10-11T22:38:27.286Z,1.60
2022-10-11T22:40:54.979Z,1.63
2022-10-11T22:43:21.800Z,1.68
2022-10-11T22:45:48.588Z,1.72
2022-10-11T22:48:15.402Z,1.75
2022-10-11T22:50:42.384Z,1.74
2022-10-11T22:53:12.590Z,1.72
2022-10-11T22:55:39.919Z,1.67
2022-10-11T22:58:06.775Z,1.63
2022-10-11T23:00:34.617Z,1.60
2022-10-11T23:03:01.404Z,1.56
2022-10-11T23:05:28.246Z,1.54
2022-10-11T23:07:55.076Z,1.52
2022-10-11T23:10:21.892Z,1.49
2022-10-11T23:12:48.690Z,1.45
2022-10-11T23:15:15.528Z,1.40
2022-10-11T23:17:42.838Z,1.37
2022-10-11T23:20:10.173Z,1.32
2022-10-11T23:22:37.124Z,1.27
2022-10-11T23:25:05.150Z,1.25
2022-10-11T23:27:31.916Z,1.23
2022-10-11T23:29:58.771Z,1.22
2022-10-11T23:32:25.579Z,1.25
2022-10-11T23:34:52.330Z,1.27
2022-10-11T23:37:19.569Z,1.24
2022-10-11T23:39:46.390Z,1.28
2022-10-11T23:42:13.233Z,1.23
2022-10-11T23:44:40.010Z,1.20
2022-10-11T23:47:06.815Z,1.17
2022-10-11T23:49:33.645Z,1.12
2022-10-11T23:52:00.492Z,1.08
2022-10-11T23:54:27.326Z,1.06
2022-10-11T23:56:54.109Z,0.99
2022-10-11T23:59:20.915Z,1.02
